createdAt,value
2018-09-28T00:02:08.754Z,14.30
2018-09-28T00:04:37.489Z,14.30
2018-09-28T00:07:06.212Z,14.20
2018-09-28T00:09:34.860Z,14.20
2018-09-28T00:12:03.392Z,14.20
2018-09-28T00:14:32.144Z,14.00
2018-09-28T00:17:04.124Z,13.80
2018-09-28T00:19:34.051Z,13.80
2018-09-28T00:22:02.844Z,13.90
2018-09-28T00:24:31.680Z,13.80
2018-09-28T00:27:00.272Z,13.80
2018-09-28T00:29:29.187Z,13.80
2018-09-28T00:31:57.856Z,13.80
2018-09-28T00:34:26.649Z,13.80
2018-09-28T00:36:55.468Z,13.80
2018-09-28T00:39:24.322Z,13.90
2018-09-28T00:41:52.897Z,14.00
2018-09-28T00:44:21.437Z,13.90
2018-09-28T00:46:49.973Z,13.90
2018-09-28T00:49:18.542Z,13.70
2018-09-28T00:51:47.064Z,13.60
2018-09-28T00:54:15.659Z,13.60
2018-09-28T00:56:44.180Z,13.60
2018-09-28T00:59:12.771Z,13.60
2018-09-28T01:01:41.350Z,13.60
2018-09-28T01:04:10.291Z,13.50
2018-09-28T01:06:38.873Z,13.60
2018-09-28T01:09:10.683Z,13.60
2018-09-28T01:11:39.377Z,13.60
2018-09-28T01:14:08.116Z,13.50
2018-09-28T01:16:36.752Z,13.50
2018-09-28T01:19:05.679Z,13.50
2018-09-28T01:21:34.477Z,13.50
2018-09-28T01:24:03.218Z,13.50
2018-09-28T01:26:31.736Z,13.50
2018-09-28T01:29:00.931Z,13.40
2018-09-28T01:31:29.671Z,13.30
2018-09-28T01:33:58.302Z,13.40
2018-09-28T01:36:27.310Z,13.50
2018-09-28T01:38:55.910Z,13.40
2018-09-28T01:41:24.535Z,13.40
2018-09-28T01:43:53.183Z,13.30
2018-09-28T01:46:21.850Z,13.30
2018-09-28T01:48:50.406Z,13.20
2018-09-28T01:51:19.007Z,13.10
2018-09-28T01:53:47.617Z,13.00
2018-09-28T01:56:16.264Z,13.00
2018-09-28T01:58:44.911Z,13.00
2018-09-28T02:01:13.391Z,13.10
2018-09-28T02:03:41.921Z,13.10
2018-09-28T02:06:10.462Z,13.10
2018-09-28T02:08:38.942Z,13.00
2018-09-28T02:11:07.735Z,12.90
2018-09-28T02:13:36.257Z,12.80
2018-09-28T02:16:04.787Z,12.80
2018-09-28T02:18:33.371Z,13.00
2018-09-28T02:21:01.886Z,13.00
2018-09-28T02:23:30.456Z,13.00
2018-09-28T02:25:59.096Z,12.90
2018-09-28T02:28:27.699Z,12.80
2018-09-28T02:30:56.251Z,12.80
2018-09-28T02:33:24.805Z,12.70
2018-09-28T02:35:53.366Z,12.60
2018-09-28T02:38:21.947Z,12.70
2018-09-28T02:40:50.529Z,12.70
2018-09-28T02:43:19.037Z,12.70
2018-09-28T02:45:47.565Z,12.70
2018-09-28T02:48:16.079Z,12.60
2018-09-28T02:50:44.578Z,12.60
2018-09-28T02:53:18.592Z,12.80
2018-09-28T02:55:48.778Z,12.70
2018-09-28T02:58:17.325Z,12.70
2018-09-28T03:00:46.985Z,12.60
2018-09-28T03:03:15.851Z,12.50
2018-09-28T03:05:44.773Z,12.40
2018-09-28T03:08:13.369Z,12.40
2018-09-28T03:10:41.837Z,12.40
2018-09-28T03:13:10.366Z,12.20
2018-09-28T03:15:39.072Z,12.30
2018-09-28T03:18:07.931Z,12.30
2018-09-28T03:20:36.533Z,12.20
2018-09-28T03:23:05.038Z,12.30
2018-09-28T03:25:33.514Z,12.30
2018-09-28T03:28:02.079Z,12.30
2018-09-28T03:30:30.703Z,12.20
2018-09-28T03:32:59.262Z,12.20
2018-09-28T03:35:27.930Z,12.10
2018-09-28T03:37:56.425Z,12.00
2018-09-28T03:40:24.893Z,12.10
2018-09-28T03:42:53.463Z,12.10
2018-09-28T03:45:22.980Z,12.10
2018-09-28T03:47:51.574Z,12.20
2018-09-28T03:50:20.322Z,12.10
2018-09-28T03:52:48.876Z,12.00
2018-09-28T03:55:17.357Z,12.00
2018-09-28T03:57:46.026Z,11.90
2018-09-28T04:00:14.609Z,12.00
2018-09-28T04:02:43.093Z,12.00
2018-09-28T04:05:11.625Z,12.00
2018-09-28T04:07:40.209Z,11.90
2018-09-28T04:10:09.338Z,11.90
2018-09-28T04:12:37.978Z,11.90
2018-09-28T04:15:06.802Z,11.90
2018-09-28T04:17:35.191Z,11.80
2018-09-28T04:20:03.702Z,11.90
2018-09-28T04:22:32.309Z,11.90
2018-09-28T04:25:01.072Z,12.00
2018-09-28T04:27:30.615Z,12.00
2018-09-28T04:29:59.155Z,11.90
2018-09-28T04:32:27.690Z,11.90
2018-09-28T04:34:56.196Z,12.00
2018-09-28T04:37:24.780Z,12.00
2018-09-28T04:39:53.287Z,12.00
2018-09-28T04:42:21.769Z,12.00
2018-09-28T04:44:50.349Z,12.00
2018-09-28T04:47:18.896Z,11.90
2018-09-28T04:49:47.474Z,12.00
2018-09-28T04:52:15.976Z,11.90
2018-09-28T04:54:44.475Z,11.90
2018-09-28T04:57:13.247Z,11.90
2018-09-28T04:59:41.743Z,11.80
2018-09-28T05:02:10.439Z,11.80
2018-09-28T05:04:39.012Z,11.90
2018-09-28T05:07:07.801Z,11.90
2018-09-28T05:09:36.316Z,12.00
2018-09-28T05:12:04.937Z,12.10
2018-09-28T05:14:33.346Z,12.10
2018-09-28T05:17:01.851Z,12.10
2018-09-28T05:19:30.353Z,12.10
2018-09-28T05:21:58.902Z,12.20
2018-09-28T05:24:27.597Z,12.30
2018-09-28T05:26:56.137Z,12.30
2018-09-28T05:29:24.799Z,12.20
2018-09-28T05:31:53.391Z,12.20
2018-09-28T05:34:21.788Z,12.30
2018-09-28T05:36:50.347Z,12.50
2018-09-28T05:39:19.646Z,12.40
2018-09-28T05:41:48.236Z,12.50
2018-09-28T05:44:17.023Z,12.40
2018-09-28T05:46:45.451Z,12.40
2018-09-28T05:49:14.002Z,12.60
2018-09-28T05:51:42.551Z,12.80
2018-09-28T05:54:11.052Z,13.30
2018-09-28T05:56:39.551Z,13.70
2018-09-28T05:59:13.446Z,14.40
2018-09-28T06:01:47.412Z,15.10
2018-09-28T06:04:21.133Z,15.40
2018-09-28T06:06:49.743Z,15.60
2018-09-28T06:09:18.287Z,15.50
2018-09-28T06:11:46.842Z,15.20
2018-09-28T06:14:15.315Z,14.70
2018-09-28T06:16:43.842Z,14.20
2018-09-28T06:19:12.430Z,14.00
2018-09-28T06:21:40.973Z,13.80
2018-09-28T06:24:09.503Z,13.70
2018-09-28T06:26:37.988Z,13.70
2018-09-28T06:29:06.603Z,13.70
2018-09-28T06:31:35.072Z,13.80
2018-09-28T06:34:03.585Z,13.90
2018-09-28T06:36:32.184Z,14.00
2018-09-28T06:39:07.495Z,14.10
2018-09-28T06:41:36.901Z,14.30
2018-09-28T06:44:05.484Z,14.40
2018-09-28T06:46:34.071Z,14.60
2018-09-28T06:49:03.553Z,14.80
2018-09-28T06:51:32.142Z,15.00
2018-09-28T06:54:00.644Z,15.20
2018-09-28T06:56:29.186Z,15.40
2018-09-28T06:58:57.687Z,15.20
2018-09-28T07:01:26.214Z,15.60
2018-09-28T07:03:54.621Z,15.40
2018-09-28T07:06:23.263Z,15.60
2018-09-28T07:08:51.637Z,15.50
2018-09-28T07:11:20.025Z,15.20
2018-09-28T07:13:48.458Z,15.00
2018-09-28T07:16:16.999Z,15.30
2018-09-28T07:18:45.384Z,15.80
2018-09-28T07:21:13.858Z,16.40
2018-09-28T07:23:42.518Z,16.60
2018-09-28T07:26:10.889Z,16.70
2018-09-28T07:28:39.429Z,16.80
2018-09-28T07:31:08.409Z,17.00
2018-09-28T07:33:36.834Z,17.00
2018-09-28T07:36:05.423Z,17.00
2018-09-28T07:38:33.703Z,17.10
2018-09-28T07:41:02.125Z,17.20
2018-09-28T07:43:30.541Z,16.90
2018-09-28T07:45:59.047Z,17.20
2018-09-28T07:48:27.487Z,17.40
2018-09-28T07:50:55.907Z,17.30
2018-09-28T07:53:24.408Z,17.40
2018-09-28T07:55:52.889Z,17.80
2018-09-28T07:58:21.255Z,17.80
2018-09-28T08:00:49.656Z,17.40
2018-09-28T08:03:18.071Z,17.80
2018-09-28T08:05:46.664Z,17.80
2018-09-28T08:08:15.064Z,16.90
2018-09-28T08:10:43.514Z,17.60
2018-09-28T08:13:11.919Z,17.70
2018-09-28T08:15:41.256Z,17.40
2018-09-28T08:18:09.675Z,17.80
2018-09-28T08:20:38.105Z,17.50
2018-09-28T08:23:06.647Z,18.20
2018-09-28T08:25:35.055Z,18.20
2018-09-28T08:28:03.463Z,18.00
2018-09-28T08:30:31.933Z,18.30
2018-09-28T08:33:00.308Z,17.90
2018-09-28T08:35:28.858Z,18.20
2018-09-28T08:37:57.265Z,18.30
2018-09-28T08:40:25.703Z,17.70
2018-09-28T08:42:54.095Z,17.20
2018-09-28T08:45:22.506Z,17.60
2018-09-28T08:47:50.966Z,18.00
2018-09-28T08:50:19.403Z,18.00
2018-09-28T08:52:47.810Z,18.20
2018-09-28T08:55:16.237Z,18.60
2018-09-28T08:57:44.662Z,18.90
2018-09-28T09:00:13.091Z,18.90
2018-09-28T09:02:41.543Z,19.00
2018-09-28T09:05:09.958Z,18.90
2018-09-28T09:07:38.474Z,18.60
2018-09-28T09:10:06.934Z,18.00
2018-09-28T09:12:35.373Z,18.10
2018-09-28T09:15:03.852Z,18.80
2018-09-28T09:17:32.514Z,18.70
2018-09-28T09:20:01.033Z,18.90
2018-09-28T09:22:29.506Z,19.50
2018-09-28T09:24:58.258Z,19.20
2018-09-28T09:27:26.727Z,18.90
2018-09-28T09:29:55.118Z,19.00
2018-09-28T09:32:23.563Z,19.10
2018-09-28T09:34:52.113Z,19.30
2018-09-28T09:37:20.608Z,19.40
2018-09-28T09:39:49.055Z,19.40
2018-09-28T09:42:18.121Z,19.70
2018-09-28T09:44:46.663Z,19.60
2018-09-28T09:47:15.112Z,18.90
2018-09-28T09:49:43.687Z,19.00
2018-09-28T09:52:12.335Z,19.30
2018-09-28T09:54:40.943Z,19.50
2018-09-28T09:57:09.433Z,19.80
2018-09-28T09:59:37.898Z,19.70
2018-09-28T10:02:11.825Z,19.80
2018-09-28T10:04:40.213Z,19.70
2018-09-28T10:07:08.650Z,19.90
2018-09-28T10:09:37.064Z,19.90
2018-09-28T10:12:05.730Z,20.00
2018-09-28T10:14:34.166Z,20.30
2018-09-28T10:17:02.752Z,20.20
2018-09-28T10:19:31.280Z,20.00
2018-09-28T10:21:59.778Z,20.30
2018-09-28T10:24:28.300Z,20.10
2018-09-28T10:26:56.826Z,20.60
2018-09-28T10:29:25.293Z,20.50
2018-09-28T10:31:53.723Z,20.80
2018-09-28T10:34:22.202Z,20.10
2018-09-28T10:36:51.122Z,20.50
2018-09-28T10:39:19.712Z,20.50
2018-09-28T10:41:48.222Z,20.80
2018-09-28T10:44:16.766Z,21.10
2018-09-28T10:46:45.350Z,21.00
2018-09-28T10:49:14.303Z,20.90
2018-09-28T10:51:42.826Z,20.80
2018-09-28T10:54:11.138Z,20.80
2018-09-28T10:56:39.576Z,20.80
2018-09-28T10:59:08.538Z,20.70
2018-09-28T11:01:37.275Z,21.60
2018-09-28T11:04:05.758Z,21.20
2018-09-28T11:06:34.208Z,21.10
2018-09-28T11:09:02.697Z,20.80
2018-09-28T11:11:31.101Z,21.30
2018-09-28T11:13:59.561Z,21.30
2018-09-28T11:16:28.042Z,21.50
2018-09-28T11:18:56.593Z,21.40
2018-09-28T11:21:24.972Z,21.00
2018-09-28T11:23:53.275Z,20.70
2018-09-28T11:26:21.738Z,21.00
2018-09-28T11:28:50.118Z,21.10
2018-09-28T11:31:18.591Z,21.50
2018-09-28T11:33:47.093Z,21.50
2018-09-28T11:36:15.435Z,21.10
2018-09-28T11:38:43.828Z,21.30
2018-09-28T11:41:12.206Z,21.70
2018-09-28T11:43:40.583Z,21.90
2018-09-28T11:46:09.806Z,21.70
2018-09-28T11:48:38.696Z,21.80
2018-09-28T11:51:07.108Z,21.50
2018-09-28T11:53:35.540Z,21.90
2018-09-28T11:56:04.022Z,21.90
2018-09-28T11:58:32.414Z,22.00
2018-09-28T12:01:00.903Z,22.00
2018-09-28T12:03:29.355Z,22.10
2018-09-28T12:05:57.699Z,22.00
2018-09-28T12:08:26.086Z,22.30
2018-09-28T12:10:54.441Z,22.70
2018-09-28T12:13:22.851Z,22.60
2018-09-28T12:15:51.311Z,22.70
2018-09-28T12:18:19.603Z,23.10
2018-09-28T12:20:47.963Z,22.90
2018-09-28T12:23:16.329Z,23.20
2018-09-28T12:25:44.686Z,23.50
2018-09-28T12:28:13.049Z,23.30
2018-09-28T12:30:41.426Z,23.10
2018-09-28T12:33:09.783Z,23.50
2018-09-28T12:35:38.242Z,23.50
2018-09-28T12:38:06.616Z,23.50
2018-09-28T12:40:34.996Z,23.60
2018-09-28T12:43:03.387Z,24.00
2018-09-28T12:45:31.756Z,23.70
2018-09-28T12:48:00.172Z,24.00
2018-09-28T12:50:28.559Z,23.90
2018-09-28T12:52:56.930Z,23.70
2018-09-28T12:55:25.291Z,23.90
2018-09-28T12:57:53.682Z,24.10
2018-09-28T13:00:23.437Z,24.30
2018-09-28T13:02:51.803Z,24.60
2018-09-28T13:05:20.287Z,24.80
2018-09-28T13:07:49.397Z,24.60
2018-09-28T13:10:17.855Z,24.80
2018-09-28T13:12:46.315Z,24.40
2018-09-28T13:15:14.887Z,24.50
2018-09-28T13:17:43.133Z,24.80
2018-09-28T13:20:11.596Z,24.70
2018-09-28T13:22:39.963Z,25.20
2018-09-28T13:25:08.871Z,25.00
2018-09-28T13:27:37.252Z,25.30
2018-09-28T13:30:05.721Z,24.70
2018-09-28T13:32:34.193Z,25.20
2018-09-28T13:35:02.703Z,25.10
2018-09-28T13:37:31.131Z,24.60
2018-09-28T13:39:59.665Z,24.60
2018-09-28T13:42:28.237Z,24.40
2018-09-28T13:44:56.662Z,24.10
2018-09-28T13:47:25.066Z,23.70
2018-09-28T13:49:53.740Z,23.30
2018-09-28T13:52:22.402Z,23.50
2018-09-28T13:54:50.909Z,23.20
2018-09-28T13:57:19.318Z,22.70
2018-09-28T13:59:47.788Z,23.00
2018-09-28T14:02:16.321Z,23.20
2018-09-28T14:04:44.783Z,23.00
2018-09-28T14:07:13.424Z,23.40
2018-09-28T14:09:41.768Z,23.70
2018-09-28T14:12:10.400Z,23.60
2018-09-28T14:14:38.798Z,24.30
2018-09-28T14:17:07.209Z,23.90
2018-09-28T14:19:35.791Z,23.30
2018-09-28T14:22:04.235Z,22.70
2018-09-28T14:24:32.790Z,22.90
2018-09-28T14:27:01.293Z,22.90
2018-09-28T14:29:29.782Z,22.80
2018-09-28T14:31:58.266Z,23.00
2018-09-28T14:34:26.701Z,23.10
2018-09-28T14:36:55.189Z,23.40
2018-09-28T14:39:23.675Z,23.40
2018-09-28T14:41:52.164Z,24.40
2018-09-28T14:44:20.640Z,23.20
2018-09-28T14:46:49.112Z,23.20
2018-09-28T14:49:17.542Z,23.60
2018-09-28T14:51:45.984Z,23.40
2018-09-28T14:54:14.576Z,23.10
2018-09-28T14:56:43.065Z,22.30
2018-09-28T14:59:11.540Z,21.90
2018-09-28T15:01:40.026Z,21.80
2018-09-28T15:04:08.479Z,21.30
2018-09-28T15:06:37.052Z,21.30
2018-09-28T15:09:07.222Z,21.60
2018-09-28T15:11:35.736Z,23.00
2018-09-28T15:14:04.234Z,24.10
2018-09-28T15:16:32.749Z,22.50
2018-09-28T15:19:01.147Z,21.50
2018-09-28T15:21:29.566Z,21.00
2018-09-28T15:23:58.081Z,20.70
2018-09-28T15:26:26.408Z,20.30
2018-09-28T15:28:54.791Z,19.80
2018-09-28T15:31:23.180Z,19.40
2018-09-28T15:33:51.610Z,19.00
2018-09-28T15:36:20.109Z,18.60
2018-09-28T15:38:48.470Z,18.40
2018-09-28T15:41:16.838Z,18.10
2018-09-28T15:43:45.231Z,17.90
2018-09-28T15:46:13.617Z,17.70
2018-09-28T15:48:42.270Z,17.40
2018-09-28T15:51:10.674Z,17.30
2018-09-28T15:53:39.272Z,17.40
2018-09-28T15:56:08.372Z,17.20
2018-09-28T15:58:36.963Z,17.30
2018-09-28T16:01:05.547Z,17.10
2018-09-28T16:03:34.018Z,16.80
2018-09-28T16:06:02.413Z,16.80
2018-09-28T16:08:30.927Z,16.90
2018-09-28T16:10:59.541Z,16.80
2018-09-28T16:13:28.014Z,16.90
2018-09-28T16:15:56.383Z,16.60
2018-09-28T16:18:24.806Z,16.40
2018-09-28T16:20:53.175Z,16.30
2018-09-28T16:23:21.545Z,16.20
2018-09-28T16:25:49.918Z,16.30
2018-09-28T16:28:18.322Z,16.30
2018-09-28T16:30:46.683Z,16.20
2018-09-28T16:33:15.070Z,16.20
2018-09-28T16:35:43.502Z,15.90
2018-09-28T16:38:11.956Z,16.10
2018-09-28T16:40:40.384Z,15.70
2018-09-28T16:43:08.806Z,15.60
2018-09-28T16:45:37.264Z,15.70
2018-09-28T16:48:06.073Z,15.50
2018-09-28T16:50:34.482Z,15.30
2018-09-28T16:53:02.903Z,15.30
2018-09-28T16:55:31.291Z,15.20
2018-09-28T16:57:59.799Z,15.10
2018-09-28T17:00:28.205Z,15.10
2018-09-28T17:02:56.578Z,15.10
2018-09-28T17:05:24.997Z,15.10
2018-09-28T17:07:53.395Z,15.10
2018-09-28T17:10:21.839Z,15.00
2018-09-28T17:12:50.538Z,15.00
2018-09-28T17:15:19.004Z,15.10
2018-09-28T17:17:47.366Z,15.10
2018-09-28T17:20:16.013Z,15.10
2018-09-28T17:22:44.520Z,15.10
2018-09-28T17:25:13.038Z,15.00
2018-09-28T17:27:41.536Z,15.00
2018-09-28T17:30:10.083Z,14.70
2018-09-28T17:32:38.898Z,14.70
2018-09-28T17:35:07.570Z,14.70
2018-09-28T17:37:35.988Z,14.70
2018-09-28T17:40:04.617Z,14.80
2018-09-28T17:42:33.072Z,14.80
2018-09-28T17:45:01.522Z,14.70
2018-09-28T17:47:30.087Z,14.70
2018-09-28T17:49:58.571Z,14.70
2018-09-28T17:52:27.170Z,14.80
2018-09-28T17:54:56.648Z,14.70
2018-09-28T17:57:25.115Z,14.70
2018-09-28T17:59:53.612Z,14.70
2018-09-28T18:02:22.110Z,14.70
2018-09-28T18:04:50.546Z,14.70
2018-09-28T18:07:19.197Z,14.80
2018-09-28T18:09:47.761Z,14.80
2018-09-28T18:12:17.340Z,14.70
2018-09-28T18:14:45.834Z,14.80
2018-09-28T18:17:14.481Z,14.80
2018-09-28T18:19:42.961Z,14.80
2018-09-28T18:22:11.499Z,14.90
2018-09-28T18:24:40.104Z,14.80
2018-09-28T18:27:08.668Z,14.90
2018-09-28T18:29:37.092Z,14.90
2018-09-28T18:32:05.960Z,14.90
2018-09-28T18:34:34.411Z,14.90
2018-09-28T18:37:03.918Z,14.90
2018-09-28T18:39:32.410Z,14.90
2018-09-28T18:42:00.928Z,14.90
2018-09-28T18:44:29.419Z,14.90
2018-09-28T18:46:57.951Z,14.80
2018-09-28T18:49:26.720Z,14.90
2018-09-28T18:51:55.245Z,14.90
2018-09-28T18:54:23.880Z,15.00
2018-09-28T18:56:52.531Z,14.90
2018-09-28T18:59:21.086Z,14.90
2018-09-28T19:01:49.616Z,14.90
2018-09-28T19:04:18.226Z,14.90
2018-09-28T19:06:46.681Z,14.90
2018-09-28T19:09:15.115Z,14.80
2018-09-28T19:11:43.672Z,14.80
2018-09-28T19:14:12.217Z,14.80
2018-09-28T19:16:40.782Z,14.90
2018-09-28T19:19:09.249Z,14.80
2018-09-28T19:21:38.005Z,14.80
2018-09-28T19:24:06.409Z,14.80
2018-09-28T19:26:34.921Z,14.80
2018-09-28T19:29:03.347Z,14.80
2018-09-28T19:31:31.876Z,14.80
2018-09-28T19:34:00.431Z,14.80
2018-09-28T19:36:29.049Z,14.70
2018-09-28T19:38:57.735Z,14.70
2018-09-28T19:41:26.138Z,14.70
2018-09-28T19:43:54.596Z,14.70
2018-09-28T19:46:23.129Z,14.80
2018-09-28T19:48:51.993Z,14.70
2018-09-28T19:51:20.762Z,14.70
2018-09-28T19:53:49.194Z,14.70
2018-09-28T19:56:17.618Z,14.60
2018-09-28T19:58:46.061Z,14.60
2018-09-28T20:01:14.676Z,14.60
2018-09-28T20:03:43.147Z,14.70
2018-09-28T20:06:11.623Z,14.70
2018-09-28T20:08:40.059Z,14.60
2018-09-28T20:11:08.563Z,14.60
2018-09-28T20:13:37.057Z,14.60
2018-09-28T20:16:05.532Z,14.60
2018-09-28T20:18:34.019Z,14.70
2018-09-28T20:21:02.479Z,14.60
2018-09-28T20:23:30.959Z,14.60
2018-09-28T20:25:59.395Z,14.60
2018-09-28T20:28:27.966Z,14.60
2018-09-28T20:30:56.422Z,14.60
2018-09-28T20:33:25.047Z,14.60
2018-09-28T20:35:53.510Z,14.60
2018-09-28T20:38:21.955Z,14.60
2018-09-28T20:40:50.421Z,14.50
2018-09-28T20:43:18.915Z,14.40
2018-09-28T20:45:47.499Z,14.50
2018-09-28T20:48:15.970Z,14.50
2018-09-28T20:50:44.512Z,14.40
2018-09-28T20:53:12.985Z,14.40
2018-09-28T20:55:41.871Z,14.50
2018-09-28T20:58:10.388Z,14.50
2018-09-28T21:00:38.922Z,14.50
2018-09-28T21:03:07.411Z,14.40
2018-09-28T21:05:35.923Z,14.50
2018-09-28T21:08:04.435Z,14.40
2018-09-28T21:10:33.585Z,14.40
2018-09-28T21:13:02.006Z,14.40
2018-09-28T21:15:30.518Z,14.40
2018-09-28T21:17:58.934Z,14.40
2018-09-28T21:20:27.556Z,14.30
2018-09-28T21:22:56.028Z,14.30
2018-09-28T21:25:24.523Z,14.20
2018-09-28T21:27:53.011Z,14.20
2018-09-28T21:30:21.585Z,14.20
2018-09-28T21:32:50.105Z,14.20
2018-09-28T21:35:18.610Z,14.30
2018-09-28T21:37:47.195Z,14.10
2018-09-28T21:40:15.698Z,14.10
2018-09-28T21:42:44.598Z,14.00
2018-09-28T21:45:12.993Z,13.90
2018-09-28T21:47:41.429Z,13.90
2018-09-28T21:50:09.905Z,14.00
2018-09-28T21:52:38.509Z,13.90
2018-09-28T21:55:07.121Z,13.90
2018-09-28T21:57:35.662Z,13.80
2018-09-28T22:00:04.627Z,13.80
2018-09-28T22:02:33.093Z,13.80
2018-09-28T22:05:01.928Z,13.80
2018-09-28T22:07:30.464Z,13.70
2018-09-28T22:09:59.055Z,13.60
2018-09-28T22:12:27.507Z,13.40
2018-09-28T22:14:56.093Z,13.40
2018-09-28T22:17:25.392Z,13.20
2018-09-28T22:19:53.888Z,13.20
2018-09-28T22:22:22.505Z,13.10
2018-09-28T22:24:51.006Z,13.10
2018-09-28T22:27:19.604Z,13.00
2018-09-28T22:29:48.153Z,12.90
2018-09-28T22:32:16.672Z,12.90
2018-09-28T22:34:45.219Z,12.80
2018-09-28T22:37:13.840Z,12.80
2018-09-28T22:39:42.314Z,12.70
2018-09-28T22:42:10.795Z,12.80
2018-09-28T22:44:39.291Z,12.70
2018-09-28T22:47:07.729Z,12.60
2018-09-28T22:49:36.155Z,12.40
2018-09-28T22:52:04.543Z,12.40
2018-09-28T22:54:32.938Z,12.40
2018-09-28T22:57:01.335Z,12.40
2018-09-28T22:59:29.763Z,12.30
2018-09-28T23:01:58.181Z,12.30
2018-09-28T23:04:26.610Z,12.20
2018-09-28T23:06:55.065Z,12.10
2018-09-28T23:09:23.593Z,12.10
2018-09-28T23:11:57.259Z,12.00
2018-09-28T23:14:25.707Z,12.00
2018-09-28T23:16:54.187Z,11.90
2018-09-28T23:19:22.691Z,11.80
2018-09-28T23:21:51.534Z,11.70
2018-09-28T23:24:20.005Z,11.70
2018-09-28T23:29:25.058Z,11.60
2018-09-28T23:31:53.516Z,11.50
2018-09-28T23:34:22.046Z,11.50
2018-09-28T23:36:50.655Z,11.50
2018-09-28T23:39:19.442Z,11.40
2018-09-28T23:41:47.914Z,11.30
2018-09-28T23:44:16.400Z,11.30
2018-09-28T23:46:44.858Z,11.20
2018-09-28T23:49:13.326Z,11.20
2018-09-28T23:51:41.787Z,11.20
2018-09-28T23:54:10.207Z,11.10
2018-09-28T23:56:38.651Z,11.10
2018-09-28T23:59:07.084Z,11.00
